createdAt,value
2023-05-13T00:00:34.037Z,8.43
2023-05-13T00:03:00.966Z,8.42
2023-05-13T00:05:27.820Z,8.54
2023-05-13T00:07:55.033Z,8.53
2023-05-13T00:10:22.124Z,8.48
2023-05-13T00:12:49.135Z,8.45
2023-05-13T00:15:15.953Z,8.35
2023-05-13T00:17:42.839Z,8.37
2023-05-13T00:20:09.879Z,8.31
2023-05-13T00:22:36.598Z,8.27
2023-05-13T00:25:04.342Z,8.26
2023-05-13T00:27:33.108Z,8.32
2023-05-13T00:30:03.089Z,8.22
2023-05-13T00:32:29.942Z,8.17
2023-05-13T00:34:56.787Z,8.25
2023-05-13T00:37:23.594Z,8.17
2023-05-13T00:39:50.420Z,8.12
2023-05-13T00:42:17.366Z,8.31
2023-05-13T00:44:44.194Z,8.24
2023-05-13T00:47:12.301Z,8.18
2023-05-13T00:49:39.414Z,8.16
2023-05-13T00:52:06.478Z,8.17
2023-05-13T00:54:33.554Z,8.07
2023-05-13T00:57:00.371Z,8.04
2023-05-13T00:59:29.513Z,8.06
2023-05-13T01:02:22.505Z,8.04
2023-05-13T01:05:22.659Z,8.06
2023-05-13T01:08:29.595Z,7.97
2023-05-13T01:11:04.089Z,8.06
2023-05-13T01:13:40.074Z,7.92
2023-05-13T01:16:39.915Z,7.94
2023-05-13T01:19:29.609Z,7.97
2023-05-13T01:21:56.649Z,8.01
2023-05-13T01:24:23.431Z,8.00
2023-05-13T01:26:50.336Z,8.00
2023-05-13T01:29:17.338Z,7.97
2023-05-13T01:31:46.526Z,8.00
2023-05-13T01:34:16.269Z,7.97
2023-05-13T01:36:44.292Z,7.89
2023-05-13T01:39:12.428Z,7.87
2023-05-13T01:41:39.216Z,8.01
2023-05-13T01:44:06.664Z,8.00
2023-05-13T01:46:33.572Z,7.93
2023-05-13T01:49:00.479Z,7.89
2023-05-13T01:51:27.243Z,7.75
2023-05-13T01:53:53.950Z,7.97
2023-05-13T01:56:21.505Z,7.78
2023-05-13T01:58:48.265Z,7.82
2023-05-13T02:01:15.053Z,7.90
2023-05-13T02:03:41.949Z,7.74
2023-05-13T02:06:08.720Z,7.92
2023-05-13T02:08:35.482Z,7.82
2023-05-13T02:11:02.316Z,7.67
2023-05-13T02:13:29.254Z,7.55
2023-05-13T02:15:56.251Z,7.87
2023-05-13T02:18:23.097Z,7.75
2023-05-13T02:20:50.160Z,7.64
2023-05-13T02:23:17.834Z,7.49
2023-05-13T02:25:44.852Z,7.55
2023-05-13T02:28:11.681Z,7.64
2023-05-13T02:30:38.508Z,7.69
2023-05-13T02:33:05.304Z,7.56
2023-05-13T02:35:32.058Z,7.62
2023-05-13T02:37:58.791Z,7.58
2023-05-13T02:40:25.592Z,7.52
2023-05-13T02:42:52.426Z,7.49
2023-05-13T02:45:19.254Z,7.43
2023-05-13T02:47:48.960Z,7.53
2023-05-13T02:50:15.838Z,7.56
2023-05-13T02:52:42.645Z,7.47
2023-05-13T02:55:10.025Z,7.59
2023-05-13T02:57:38.044Z,7.47
2023-05-13T03:00:06.045Z,7.29
2023-05-13T03:02:33.858Z,7.43
2023-05-13T03:05:00.744Z,7.36
2023-05-13T03:07:27.525Z,7.39
2023-05-13T03:09:54.375Z,7.20
2023-05-13T03:12:21.253Z,7.32
2023-05-13T03:14:48.078Z,7.19
2023-05-13T03:17:14.870Z,7.14
2023-05-13T03:19:41.636Z,7.23
2023-05-13T03:22:08.362Z,7.13
2023-05-13T03:24:35.257Z,7.20
2023-05-13T03:27:02.085Z,7.21
2023-05-13T03:29:28.823Z,7.20
2023-05-13T03:31:55.625Z,7.14
2023-05-13T03:34:22.417Z,7.10
2023-05-13T03:36:49.285Z,7.04
2023-05-13T03:39:16.579Z,6.99
2023-05-13T03:41:43.394Z,7.25
2023-05-13T03:44:10.123Z,7.34
2023-05-13T03:46:36.919Z,7.09
2023-05-13T03:49:03.685Z,7.07
2023-05-13T03:51:31.413Z,7.06
2023-05-13T03:53:58.188Z,6.98
2023-05-13T03:56:25.293Z,7.10
2023-05-13T03:58:52.051Z,7.49
2023-05-13T04:01:18.777Z,7.38
2023-05-13T04:03:46.695Z,7.28
2023-05-13T04:06:14.844Z,7.34
2023-05-13T04:08:42.160Z,7.38
2023-05-13T04:11:08.861Z,7.36
2023-05-13T04:13:36.414Z,7.37
2023-05-13T04:16:03.816Z,7.43
2023-05-13T04:18:32.312Z,7.33
2023-05-13T04:20:59.071Z,7.50
2023-05-13T04:23:26.012Z,7.51
2023-05-13T04:25:52.840Z,7.61
2023-05-13T04:28:20.995Z,7.56
2023-05-13T04:30:47.731Z,7.52
2023-05-13T04:33:14.574Z,7.59
2023-05-13T04:35:41.393Z,7.61
2023-05-13T04:38:08.402Z,7.58
2023-05-13T04:40:35.264Z,7.84
2023-05-13T04:43:02.048Z,7.69
2023-05-13T04:45:28.836Z,7.75
2023-05-13T04:47:58.335Z,7.73
2023-05-13T04:50:25.429Z,7.73
2023-05-13T04:52:54.940Z,7.76
2023-05-13T04:55:22.761Z,7.87
2023-05-13T04:57:49.931Z,7.96
2023-05-13T05:00:17.051Z,7.98
2023-05-13T05:02:43.821Z,8.03
2023-05-13T05:05:10.578Z,8.14
2023-05-13T05:07:40.722Z,8.10
2023-05-13T05:10:08.984Z,8.21
2023-05-13T05:12:35.921Z,8.25
2023-05-13T05:15:02.670Z,8.36
2023-05-13T05:17:32.956Z,8.43
2023-05-13T05:20:00.169Z,8.57
2023-05-13T05:22:27.264Z,8.62
2023-05-13T05:24:54.082Z,8.76
2023-05-13T05:27:20.809Z,8.75
2023-05-13T05:29:47.575Z,8.83
2023-05-13T05:32:14.566Z,9.00
2023-05-13T05:34:41.430Z,9.03
2023-05-13T05:37:08.504Z,9.17
2023-05-13T05:39:35.628Z,9.33
2023-05-13T05:42:02.708Z,9.34
2023-05-13T05:44:29.567Z,9.55
2023-05-13T05:46:56.327Z,9.59
2023-05-13T05:49:23.077Z,9.66
2023-05-13T05:51:49.919Z,9.79
2023-05-13T05:54:16.849Z,9.97
2023-05-13T05:56:43.656Z,10.12
2023-05-13T05:59:10.391Z,10.21
2023-05-13T06:01:37.369Z,10.36
2023-05-13T06:04:04.733Z,10.54
2023-05-13T06:06:32.592Z,10.56
2023-05-13T06:08:59.435Z,10.67
2023-05-13T06:11:26.497Z,10.85
2023-05-13T06:13:54.401Z,10.96
2023-05-13T06:16:21.177Z,11.18
2023-05-13T06:18:49.289Z,11.34
2023-05-13T06:21:16.114Z,11.54
2023-05-13T06:23:42.940Z,11.56
2023-05-13T06:26:09.656Z,11.59
2023-05-13T06:28:36.499Z,11.91
2023-05-13T06:31:03.375Z,12.01
2023-05-13T06:33:30.234Z,12.23
2023-05-13T06:35:57.017Z,12.36
2023-05-13T06:38:23.884Z,12.75
2023-05-13T06:40:50.655Z,12.72
2023-05-13T06:43:18.366Z,12.80
2023-05-13T06:45:45.182Z,12.89
2023-05-13T06:48:13.452Z,13.18
2023-05-13T06:50:40.272Z,13.26
2023-05-13T06:53:07.359Z,13.52
2023-05-13T06:55:36.204Z,13.52
2023-05-13T06:58:02.909Z,13.58
2023-05-13T07:00:29.844Z,13.71
2023-05-13T07:02:56.659Z,13.77
2023-05-13T07:05:23.605Z,13.88
2023-05-13T07:07:53.882Z,14.26
2023-05-13T07:10:21.221Z,13.85
2023-05-13T07:12:48.131Z,14.14
2023-05-13T07:15:14.892Z,14.00
2023-05-13T07:17:41.796Z,14.15
2023-05-13T07:20:09.733Z,14.69
2023-05-13T07:22:36.525Z,14.63
2023-05-13T07:25:03.376Z,14.62
2023-05-13T07:27:30.140Z,14.72
2023-05-13T07:29:57.039Z,15.03
2023-05-13T07:32:23.855Z,15.10
2023-05-13T07:34:51.522Z,15.28
2023-05-13T07:37:18.422Z,15.45
2023-05-13T07:39:45.190Z,15.01
2023-05-13T07:42:11.956Z,15.22
2023-05-13T07:44:38.705Z,15.09
2023-05-13T07:47:05.591Z,15.16
2023-05-13T07:49:32.488Z,15.58
2023-05-13T07:51:59.251Z,15.87
2023-05-13T07:54:26.005Z,15.99
2023-05-13T07:56:52.812Z,16.01
2023-05-13T07:59:19.909Z,16.25
2023-05-13T08:01:46.757Z,16.39
2023-05-13T08:04:13.622Z,16.73
2023-05-13T08:06:40.585Z,17.48
2023-05-13T08:09:09.552Z,17.23
2023-05-13T08:11:36.773Z,17.83
2023-05-13T08:14:03.572Z,17.20
2023-05-13T08:16:30.590Z,16.64
2023-05-13T08:18:57.846Z,16.84
2023-05-13T08:21:24.642Z,17.09
2023-05-13T08:23:52.326Z,16.97
2023-05-13T08:26:19.163Z,17.32
2023-05-13T08:28:46.506Z,17.72
2023-05-13T08:31:13.928Z,17.40
2023-05-13T08:33:46.249Z,17.19
2023-05-13T08:36:13.244Z,17.87
2023-05-13T08:38:40.265Z,17.57
2023-05-13T08:41:07.072Z,18.22
2023-05-13T08:43:34.444Z,18.83
2023-05-13T08:46:04.463Z,18.73
2023-05-13T08:48:32.567Z,17.44
2023-05-13T08:51:01.310Z,18.15
2023-05-13T08:53:29.040Z,18.14
2023-05-13T08:55:56.566Z,18.11
2023-05-13T08:58:23.622Z,18.14
2023-05-13T09:00:52.263Z,17.93
2023-05-13T09:03:19.914Z,17.42
2023-05-13T09:05:46.812Z,17.39
2023-05-13T09:08:14.197Z,17.78
2023-05-13T09:10:41.334Z,17.38
2023-05-13T09:13:08.137Z,18.01
2023-05-13T09:15:34.966Z,17.42
2023-05-13T09:18:04.981Z,17.69
2023-05-13T09:20:32.834Z,18.24
2023-05-13T09:23:11.242Z,18.98
2023-05-13T09:25:39.087Z,18.77
2023-05-13T09:28:08.031Z,18.83
2023-05-13T09:30:40.387Z,18.80
2023-05-13T09:33:17.734Z,18.71
2023-05-13T09:35:49.276Z,18.87
2023-05-13T09:38:39.344Z,19.53
2023-05-13T09:41:06.615Z,19.62
2023-05-13T09:43:34.372Z,19.39
2023-05-13T09:46:02.327Z,18.95
2023-05-13T09:48:31.685Z,19.40
2023-05-13T09:50:59.567Z,18.23
2023-05-13T09:53:28.022Z,19.04
2023-05-13T09:55:56.940Z,19.06
2023-05-13T09:58:25.674Z,18.97
2023-05-13T10:00:52.864Z,18.97
2023-05-13T10:03:19.804Z,19.96
2023-05-13T10:05:48.725Z,19.74
2023-05-13T10:08:15.854Z,19.65
2023-05-13T10:10:46.330Z,20.45
2023-05-13T10:13:19.592Z,20.41
2023-05-13T10:15:51.645Z,20.06
2023-05-13T10:18:20.062Z,19.93
2023-05-13T10:20:47.812Z,19.72
2023-05-13T10:23:14.687Z,19.60
2023-05-13T10:25:43.418Z,19.69
2023-05-13T10:28:11.061Z,19.49
2023-05-13T10:30:38.537Z,20.07
2023-05-13T10:33:05.734Z,19.79
2023-05-13T10:35:40.420Z,20.18
2023-05-13T10:38:24.207Z,19.81
2023-05-13T10:40:53.902Z,19.84
2023-05-13T10:43:22.459Z,19.74
2023-05-13T10:45:52.114Z,20.19
2023-05-13T10:48:19.317Z,19.76
2023-05-13T10:50:54.902Z,19.59
2023-05-13T10:53:28.460Z,20.09
2023-05-13T10:56:00.140Z,19.77
2023-05-13T10:58:35.264Z,20.04
2023-05-13T11:01:17.113Z,20.08
2023-05-13T11:03:59.233Z,20.43
2023-05-13T11:06:41.354Z,19.18
2023-05-13T11:09:12.828Z,19.52
2023-05-13T11:11:40.279Z,20.00
2023-05-13T11:14:17.473Z,19.73
2023-05-13T11:17:02.294Z,19.24
2023-05-13T11:19:31.415Z,19.65
2023-05-13T11:22:18.450Z,19.04
2023-05-13T11:24:46.802Z,19.27
2023-05-13T11:27:18.765Z,19.57
2023-05-13T11:29:55.048Z,20.50
2023-05-13T11:32:59.719Z,20.00
2023-05-13T11:35:33.220Z,19.47
2023-05-13T11:38:01.576Z,19.88
2023-05-13T11:40:35.226Z,19.22
2023-05-13T11:43:02.782Z,19.93
2023-05-13T11:45:30.568Z,19.35
2023-05-13T11:47:58.086Z,19.86
2023-05-13T11:50:33.185Z,20.48
2023-05-13T11:53:01.671Z,20.23
2023-05-13T11:55:31.360Z,20.18
2023-05-13T11:57:59.425Z,19.86
2023-05-13T12:00:31.246Z,19.77
2023-05-13T12:02:59.511Z,19.96
2023-05-13T12:05:27.505Z,19.48
2023-05-13T12:07:58.614Z,19.79
2023-05-13T12:10:26.700Z,20.42
2023-05-13T12:12:54.194Z,20.72
2023-05-13T12:15:22.582Z,21.46
2023-05-13T12:17:50.303Z,21.42
2023-05-13T12:20:21.301Z,20.70
2023-05-13T12:22:48.430Z,21.58
2023-05-13T12:25:33.679Z,21.76
2023-05-13T12:28:06.538Z,21.42
2023-05-13T12:30:37.701Z,21.31
2023-05-13T12:33:08.230Z,20.31
2023-05-13T12:35:35.196Z,20.44
2023-05-13T12:38:04.071Z,19.12
2023-05-13T12:40:31.655Z,19.70
2023-05-13T12:42:59.408Z,19.84
2023-05-13T12:45:30.943Z,19.47
2023-05-13T12:47:59.207Z,19.75
2023-05-13T12:50:26.719Z,19.35
2023-05-13T12:52:54.622Z,20.23
2023-05-13T12:55:22.148Z,20.09
2023-05-13T12:58:02.431Z,19.80
2023-05-13T13:00:30.290Z,20.45
2023-05-13T13:02:57.782Z,20.15
2023-05-13T13:05:25.470Z,20.26
2023-05-13T13:07:52.384Z,20.24
2023-05-13T13:10:19.368Z,19.99
2023-05-13T13:12:46.277Z,19.70
2023-05-13T13:15:13.169Z,20.28
2023-05-13T13:17:40.162Z,20.02
2023-05-13T13:20:07.697Z,19.78
2023-05-13T13:22:37.347Z,21.05
2023-05-13T13:25:05.877Z,21.45
2023-05-13T13:27:33.877Z,22.45
2023-05-13T13:30:00.852Z,22.28
2023-05-13T13:32:27.737Z,22.66
2023-05-13T13:34:54.638Z,21.69
2023-05-13T13:37:21.469Z,21.93
2023-05-13T13:39:48.238Z,22.42
2023-05-13T13:42:14.975Z,21.82
2023-05-13T13:44:43.307Z,22.07
2023-05-13T13:47:10.445Z,22.16
2023-05-13T13:49:37.325Z,21.59
2023-05-13T13:52:04.327Z,21.90
2023-05-13T13:54:31.063Z,21.28
2023-05-13T13:56:57.904Z,20.89
2023-05-13T13:59:24.778Z,20.45
2023-05-13T14:01:51.671Z,20.50
2023-05-13T14:04:23.969Z,20.98
2023-05-13T14:06:51.517Z,19.91
2023-05-13T14:09:18.792Z,20.48
2023-05-13T14:11:45.881Z,20.45
2023-05-13T14:14:12.934Z,19.76
2023-05-13T14:16:40.221Z,19.24
2023-05-13T14:19:07.097Z,18.57
2023-05-13T14:21:33.991Z,18.60
2023-05-13T14:24:00.763Z,18.67
2023-05-13T14:26:27.843Z,19.02
2023-05-13T14:28:54.777Z,18.62
2023-05-13T14:31:21.562Z,18.42
2023-05-13T14:33:48.502Z,18.36
2023-05-13T14:36:16.508Z,17.66
2023-05-13T14:38:45.690Z,17.37
2023-05-13T14:41:12.863Z,17.26
2023-05-13T14:43:39.662Z,17.00
2023-05-13T14:46:06.466Z,16.92
2023-05-13T14:48:33.216Z,17.05
2023-05-13T14:50:59.986Z,16.97
2023-05-13T14:53:26.827Z,17.07
2023-05-13T14:55:53.753Z,16.98
2023-05-13T14:58:20.693Z,16.98
2023-05-13T15:00:48.925Z,17.17
2023-05-13T15:03:16.023Z,16.76
2023-05-13T15:05:44.111Z,16.82
2023-05-13T15:08:11.200Z,16.81
2023-05-13T15:10:37.929Z,16.55
2023-05-13T15:13:04.663Z,16.81
2023-05-13T15:15:32.308Z,16.87
2023-05-13T15:17:59.223Z,16.89
2023-05-13T15:20:26.136Z,16.83
2023-05-13T15:22:52.876Z,16.79
2023-05-13T15:25:19.614Z,16.95
2023-05-13T15:27:46.865Z,16.96
2023-05-13T15:30:13.785Z,17.15
2023-05-13T15:32:40.773Z,17.40
2023-05-13T15:35:07.874Z,17.57
2023-05-13T15:37:34.625Z,17.26
2023-05-13T15:40:01.408Z,17.17
2023-05-13T15:42:28.831Z,17.37
2023-05-13T15:44:55.628Z,17.41
2023-05-13T15:47:22.483Z,17.42
2023-05-13T15:49:50.939Z,17.49
2023-05-13T15:52:17.690Z,17.56
2023-05-13T15:54:44.467Z,17.75
2023-05-13T15:57:11.223Z,17.59
2023-05-13T15:59:38.005Z,17.19
2023-05-13T16:02:05.040Z,17.08
2023-05-13T16:04:31.966Z,17.42
2023-05-13T16:06:58.786Z,17.17
2023-05-13T16:09:25.538Z,17.45
2023-05-13T16:11:52.336Z,17.42
2023-05-13T16:14:19.617Z,17.48
2023-05-13T16:16:46.716Z,18.42
2023-05-13T16:19:13.676Z,18.96
2023-05-13T16:21:41.995Z,18.85
2023-05-13T16:24:08.830Z,18.24
2023-05-13T16:26:35.711Z,18.12
2023-05-13T16:29:02.441Z,18.05
2023-05-13T16:31:29.240Z,18.12
2023-05-13T16:33:56.106Z,20.35
2023-05-13T16:36:23.293Z,21.12
2023-05-13T16:38:50.281Z,21.25
2023-05-13T16:41:17.086Z,22.00
2023-05-13T16:43:43.822Z,22.23
2023-05-13T16:46:10.750Z,21.54
2023-05-13T16:48:37.591Z,20.82
2023-05-13T16:51:04.660Z,22.22
2023-05-13T16:53:31.433Z,21.00
2023-05-13T16:55:58.283Z,21.18
2023-05-13T16:58:25.106Z,21.82
2023-05-13T17:00:52.813Z,21.05
2023-05-13T17:03:19.932Z,21.79
2023-05-13T17:05:46.806Z,21.98
2023-05-13T17:08:13.558Z,21.33
2023-05-13T17:10:40.410Z,21.87
2023-05-13T17:13:07.177Z,20.73
2023-05-13T17:15:33.931Z,20.70
2023-05-13T17:18:00.884Z,20.65
2023-05-13T17:20:27.745Z,22.47
2023-05-13T17:22:54.517Z,22.55
2023-05-13T17:25:21.241Z,21.66
2023-05-13T17:27:48.018Z,21.50
2023-05-13T17:30:16.237Z,20.29
2023-05-13T17:32:43.333Z,19.72
2023-05-13T17:35:10.452Z,19.43
2023-05-13T17:37:37.161Z,19.29
2023-05-13T17:40:04.219Z,18.35
2023-05-13T17:42:31.630Z,18.30
2023-05-13T17:44:58.427Z,18.18
2023-05-13T17:47:25.324Z,18.09
2023-05-13T17:49:52.061Z,17.66
2023-05-13T17:52:18.835Z,17.72
2023-05-13T17:54:45.667Z,17.70
2023-05-13T17:57:12.506Z,17.24
2023-05-13T17:59:39.289Z,17.09
2023-05-13T18:02:06.291Z,17.03
2023-05-13T18:04:33.126Z,17.10
2023-05-13T18:06:59.824Z,17.07
2023-05-13T18:09:26.680Z,17.13
2023-05-13T18:11:53.663Z,16.83
2023-05-13T18:14:20.410Z,16.88
2023-05-13T18:16:47.514Z,16.82
2023-05-13T18:19:14.371Z,16.73
2023-05-13T18:21:41.420Z,16.71
2023-05-13T18:24:08.386Z,16.68
2023-05-13T18:26:35.110Z,16.73
2023-05-13T18:29:02.168Z,16.48
2023-05-13T18:31:29.183Z,16.49
2023-05-13T18:33:55.959Z,16.39
2023-05-13T18:36:22.741Z,16.38
2023-05-13T18:38:49.552Z,16.33
2023-05-13T18:41:16.292Z,16.25
2023-05-13T18:43:43.066Z,16.15
2023-05-13T18:46:09.994Z,16.08
2023-05-13T18:48:36.806Z,16.09
2023-05-13T18:51:03.652Z,16.10
2023-05-13T18:53:30.472Z,16.04
2023-05-13T18:55:57.407Z,15.96
2023-05-13T18:58:24.245Z,15.94
2023-05-13T19:00:51.948Z,15.94
2023-05-13T19:03:18.784Z,15.90
2023-05-13T19:05:45.643Z,15.88
2023-05-13T19:08:12.402Z,15.81
2023-05-13T19:10:40.156Z,15.82
2023-05-13T19:13:07.522Z,15.77
2023-05-13T19:15:34.570Z,15.70
2023-05-13T19:18:01.516Z,15.66
2023-05-13T19:20:29.542Z,15.65
2023-05-13T19:22:56.349Z,15.66
2023-05-13T19:25:23.152Z,15.65
2023-05-13T19:27:50.132Z,15.67
2023-05-13T19:30:16.990Z,15.62
2023-05-13T19:32:44.141Z,15.59
2023-05-13T19:35:11.631Z,15.50
2023-05-13T19:37:38.707Z,15.45
2023-05-13T19:40:06.286Z,15.43
2023-05-13T19:42:33.198Z,15.32
2023-05-13T19:44:59.963Z,15.30
2023-05-13T19:47:27.423Z,15.23
2023-05-13T19:49:54.160Z,15.19
2023-05-13T19:52:21.133Z,15.12
2023-05-13T19:54:47.958Z,15.10
2023-05-13T19:57:14.711Z,15.13
2023-05-13T19:59:42.032Z,15.11
2023-05-13T20:02:09.379Z,15.03
2023-05-13T20:04:36.362Z,14.99
2023-05-13T20:07:03.320Z,14.95
2023-05-13T20:09:30.840Z,15.00
2023-05-13T20:12:00.669Z,14.98
2023-05-13T20:14:45.533Z,14.92
2023-05-13T20:17:17.015Z,14.94
2023-05-13T20:19:44.059Z,14.91
2023-05-13T20:22:10.908Z,14.93
2023-05-13T20:24:37.659Z,14.85
2023-05-13T20:27:04.909Z,14.84
2023-05-13T20:29:39.000Z,14.84
2023-05-13T20:32:06.886Z,14.79
2023-05-13T20:34:34.961Z,14.79
2023-05-13T20:37:01.957Z,14.76
2023-05-13T20:39:31.561Z,14.74
2023-05-13T20:41:58.408Z,14.67
2023-05-13T20:44:25.345Z,14.59
2023-05-13T20:46:52.085Z,14.44
2023-05-13T20:49:19.339Z,14.36
2023-05-13T20:51:47.927Z,14.34
2023-05-13T20:54:15.287Z,14.29
2023-05-13T20:56:42.476Z,14.10
2023-05-13T20:59:09.740Z,14.02
2023-05-13T21:01:36.630Z,13.92
2023-05-13T21:04:06.220Z,13.83
2023-05-13T21:06:33.337Z,13.72
2023-05-13T21:09:00.380Z,13.64
2023-05-13T21:11:27.321Z,13.52
2023-05-13T21:13:54.090Z,13.60
2023-05-13T21:16:20.991Z,13.47
2023-05-13T21:18:47.872Z,13.52
2023-05-13T21:21:15.062Z,13.51
2023-05-13T21:23:45.957Z,13.52
2023-05-13T21:26:13.451Z,13.45
2023-05-13T21:28:40.629Z,13.48
2023-05-13T21:31:07.487Z,13.51
2023-05-13T21:33:34.543Z,13.44
2023-05-13T21:36:01.379Z,13.38
2023-05-13T21:38:28.434Z,13.32
2023-05-13T21:40:55.458Z,13.30
2023-05-13T21:43:22.214Z,13.11
2023-05-13T21:45:49.466Z,12.98
2023-05-13T21:48:16.785Z,12.83
2023-05-13T21:50:43.800Z,12.91
2023-05-13T21:53:10.749Z,12.90
2023-05-13T21:55:37.749Z,12.78
2023-05-13T21:58:04.593Z,12.69
2023-05-13T22:00:31.835Z,12.56
2023-05-13T22:03:00.692Z,12.64
2023-05-13T22:05:27.893Z,12.37
2023-05-13T22:07:54.621Z,12.23
2023-05-13T22:10:21.597Z,12.26
2023-05-13T22:12:48.745Z,12.19
2023-05-13T22:15:15.932Z,12.19
2023-05-13T22:17:42.977Z,12.03
2023-05-13T22:20:10.181Z,12.04
2023-05-13T22:22:36.950Z,11.86
2023-05-13T22:25:04.059Z,11.84
2023-05-13T22:27:31.166Z,11.93
2023-05-13T22:29:58.048Z,11.95
2023-05-13T22:32:25.270Z,11.88
2023-05-13T22:34:52.104Z,11.80
2023-05-13T22:37:19.091Z,11.78
2023-05-13T22:39:46.066Z,11.79
2023-05-13T22:42:12.950Z,11.74
2023-05-13T22:44:39.674Z,11.71
2023-05-13T22:47:06.854Z,11.53
2023-05-13T22:49:33.573Z,11.49
2023-05-13T22:52:00.418Z,11.42
2023-05-13T22:54:28.634Z,11.37
2023-05-13T22:56:55.502Z,11.32
2023-05-13T22:59:22.242Z,11.25
2023-05-13T23:01:49.062Z,11.26
2023-05-13T23:04:16.031Z,11.10
2023-05-13T23:06:42.805Z,11.08
2023-05-13T23:09:10.538Z,10.94
2023-05-13T23:11:37.450Z,11.01
2023-05-13T23:14:04.445Z,11.14
2023-05-13T23:16:31.259Z,11.22
2023-05-13T23:18:58.140Z,10.99
2023-05-13T23:21:25.020Z,11.05
2023-05-13T23:23:52.776Z,10.86
2023-05-13T23:26:19.517Z,10.66
2023-05-13T23:28:46.319Z,10.84
2023-05-13T23:31:13.072Z,10.78
2023-05-13T23:33:39.841Z,10.62
2023-05-13T23:36:06.924Z,10.69
2023-05-13T23:38:33.767Z,10.63
2023-05-13T23:41:00.486Z,10.54
2023-05-13T23:43:27.223Z,10.62
2023-05-13T23:45:54.464Z,10.60
2023-05-13T23:48:21.257Z,10.61
2023-05-13T23:50:48.139Z,10.44
2023-05-13T23:53:16.410Z,10.45
2023-05-13T23:55:43.173Z,10.46
2023-05-13T23:58:09.994Z,10.44
